Time;durP1;ratioP1;P1;durP2;ratioP2;P2;SDS_P1;SDS_P2;PMS_P1;PMS_P2;Temp;Humidity;BMP_temperature;BMP_pressure;BME280_temperature;BME280_humidity;BME280_pressure;Samples;Min_cycle;Max_cycle;Signal;HPM_P1;HPM_P2
2023/05/16 00:02:14;;;;;;;11.20;1.67;;;9.40;99.90;;;;;;5031886;28;20052;-71
2023/05/16 00:04:44;;;;;;;;;;;9.40;99.90;;;;;;5020823;28;20050;-70
2023/05/16 00:07:13;;;;;;;9.73;1.50;;;9.40;99.90;;;;;;5033475;28;20279;-71
2023/05/16 00:09:39;;;;;;;10.82;1.15;;;9.40;99.90;;;;;;5036761;28;20067;-72
2023/05/16 00:12:07;;;;;;;8.07;1.33;;;9.30;99.90;;;;;;5036182;28;20041;-70
2023/05/16 00:14:34;;;;;;;6.72;1.08;;;9.30;99.90;;;;;;5038959;28;20075;-70
2023/05/16 00:17:00;;;;;;;12.07;1.60;;;9.40;99.90;;;;;;5029758;28;20072;-70
2023/05/16 00:19:26;;;;;;;4.75;1.20;;;9.30;99.90;;;;;;5035867;28;20061;-71
2023/05/16 00:21:52;;;;;;;;;;;9.30;99.90;;;;;;5026212;28;20204;-70
2023/05/16 00:24:18;;;;;;;6.47;1.17;;;9.20;99.90;;;;;;5037777;28;20428;-71
2023/05/16 00:26:43;;;;;;;6.53;1.07;;;9.20;99.90;;;;;;5034678;28;20078;-70
2023/05/16 00:29:09;;;;;;;9.37;1.40;;;9.10;99.90;;;;;;5037988;28;20052;-76
2023/05/16 00:31:37;;;;;;;9.80;1.42;;;9.20;99.90;;;;;;5025844;28;20033;-69
2023/05/16 00:34:03;;;;;;;3.33;1.00;;;9.20;99.90;;;;;;5046072;28;20043;-70
2023/05/16 00:36:30;;;;;;;11.20;1.63;;;9.10;99.90;;;;;;5046936;22;20041;-73
2023/05/16 00:38:56;;;;;;;14.70;1.35;;;9.10;99.90;;;;;;5037539;28;20110;-72
2023/05/16 00:41:22;;;;;;;11.23;1.47;;;9.10;99.90;;;;;;5040748;28;20476;-72
2023/05/16 00:43:48;;;;;;;5.70;1.52;;;9.10;99.90;;;;;;5021784;28;20068;-72
2023/05/16 00:46:14;;;;;;;7.80;2.23;;;9.10;99.90;;;;;;5024902;28;20054;-72
2023/05/16 00:48:39;;;;;;;8.13;1.42;;;9.00;99.90;;;;;;5021403;28;20434;-71
2023/05/16 00:51:08;;;;;;;6.60;1.20;;;9.00;99.90;;;;;;5020215;28;20067;-72
2023/05/16 00:53:35;;;;;;;5.22;1.10;;;9.00;99.90;;;;;;5025042;28;20216;-71
2023/05/16 00:56:01;;;;;;;5.45;1.25;;;9.00;99.90;;;;;;5020814;28;20067;-71
2023/05/16 00:58:28;;;;;;;6.45;0.85;;;9.00;99.90;;;;;;5022291;28;20409;-72
2023/05/16 01:00:55;;;;;;;8.55;1.33;;;9.00;99.90;;;;;;5022173;28;20513;-72
2023/05/16 01:03:21;;;;;;;9.60;1.45;;;9.00;99.90;;;;;;5023348;28;20037;-72
2023/05/16 01:05:48;;;;;;;7.95;1.55;;;9.00;99.90;;;;;;5017972;28;20050;-71
2023/05/16 01:08:14;;;;;;;4.88;1.35;;;9.00;99.90;;;;;;5024396;28;20053;-72
2023/05/16 01:10:48;;;;;;;8.03;1.23;;;8.90;99.90;;;;;;5024810;28;20080;-71
2023/05/16 01:14:01;;;;;;;5.18;1.58;;;8.90;99.90;;;;;;5035299;28;20084;-71
2023/05/16 01:16:53;;;;;;;9.68;1.40;;;8.90;99.90;;;;;;5015221;28;20362;-72
2023/05/16 01:19:53;;;;;;;12.95;1.63;;;8.90;99.90;;;;;;5017557;28;20406;-71
2023/05/16 01:22:54;;;;;;;9.60;1.50;;;8.90;99.90;;;;;;5022211;28;20510;-71
2023/05/16 01:25:35;;;;;;;6.95;1.55;;;8.90;99.90;;;;;;5008049;28;20087;-71
2023/05/16 01:28:02;;;;;;;7.43;1.15;;;8.90;99.90;;;;;;5020484;28;20041;-73
2023/05/16 01:30:36;;;;;;;6.22;1.20;;;8.90;99.90;;;;;;5006030;28;20037;-72
2023/05/16 01:33:01;;;;;;;7.40;1.80;;;8.90;99.90;;;;;;5017923;28;20491;-71
2023/05/16 01:35:28;;;;;;;9.25;1.83;;;8.90;99.90;;;;;;5022098;28;20266;-72
2023/05/16 01:37:59;;;;;;;;;;;8.80;99.90;;;;;;5019155;28;20045;-71
2023/05/16 01:40:29;;;;;;;6.35;1.35;;;8.90;99.90;;;;;;5003062;28;19928;-71
2023/05/16 01:42:58;;;;;;;5.53;1.17;;;8.80;99.90;;;;;;5020086;28;20411;-71
2023/05/16 01:45:34;;;;;;;3.35;1.13;;;8.80;99.90;;;;;;5020474;28;20260;-71
2023/05/16 01:48:08;;;;;;;7.05;1.85;;;8.80;99.90;;;;;;5022464;28;20042;-72
2023/05/16 01:50:41;;;;;;;5.88;1.02;;;8.70;99.90;;;;;;5021791;28;20118;-71
2023/05/16 01:53:13;;;;;;;14.00;1.50;;;8.70;99.90;;;;;;5015567;28;20075;-71
2023/05/16 01:55:46;;;;;;;12.50;1.33;;;8.70;99.90;;;;;;5004110;28;20132;-71
2023/05/16 01:58:16;;;;;;;8.15;1.00;;;8.70;99.90;;;;;;5021680;28;20029;-72
2023/05/16 02:00:45;;;;;;;4.72;1.10;;;8.70;99.90;;;;;;5020562;28;20130;-71
2023/05/16 02:03:10;;;;;;;5.90;1.33;;;8.70;99.90;;;;;;5014020;28;20182;-72
2023/05/16 02:05:36;;;;;;;6.97;1.40;;;8.70;99.90;;;;;;5017935;28;20057;-72
2023/05/16 02:08:02;;;;;;;5.47;1.30;;;8.70;99.90;;;;;;5011925;28;20385;-72
2023/05/16 02:10:28;;;;;;;10.30;1.77;;;8.70;99.90;;;;;;5022605;28;20050;-71
2023/05/16 02:12:54;;;;;;;11.17;1.40;;;8.60;99.90;;;;;;5021320;28;20376;-72
2023/05/16 02:15:20;;;;;;;12.23;1.73;;;8.60;99.90;;;;;;5017789;28;20038;-72
2023/05/16 02:17:46;;;;;;;8.95;1.38;;;8.60;99.90;;;;;;5004525;28;20044;-72
2023/05/16 02:20:12;;;;;;;10.20;1.40;;;8.60;99.90;;;;;;5021384;28;20056;-72
2023/05/16 02:22:38;;;;;;;7.80;1.50;;;8.60;99.90;;;;;;5016372;28;20060;-72
2023/05/16 02:25:05;;;;;;;9.55;1.60;;;8.60;99.90;;;;;;5020917;28;20029;-71
2023/05/16 02:27:31;;;;;;;8.30;1.45;;;8.60;99.90;;;;;;5035827;28;20371;-71
2023/05/16 02:29:57;;;;;;;7.78;1.30;;;8.60;99.90;;;;;;5023692;28;20513;-69
2023/05/16 02:32:23;;;;;;;9.75;1.30;;;8.60;99.90;;;;;;5020080;28;20491;-69
2023/05/16 02:34:49;;;;;;;5.85;1.27;;;8.60;99.90;;;;;;5024128;28;20116;-68
2023/05/16 02:37:15;;;;;;;7.60;1.13;;;8.60;99.90;;;;;;5021279;28;20095;-68
2023/05/16 02:39:40;;;;;;;8.70;1.47;;;8.50;99.90;;;;;;5022918;28;20065;-68
2023/05/16 02:42:06;;;;;;;5.10;1.30;;;8.50;99.90;;;;;;5017774;28;20037;-68
2023/05/16 02:44:32;;;;;;;13.93;1.87;;;8.50;99.90;;;;;;5025318;28;20426;-68
2023/05/16 02:46:58;;;;;;;7.28;2.65;;;8.50;99.90;;;;;;5019905;28;20326;-68
2023/05/16 02:49:24;;;;;;;12.00;1.92;;;8.50;99.90;;;;;;5022254;28;20138;-68
2023/05/16 02:51:50;;;;;;;10.90;1.52;;;8.50;99.90;;;;;;5023959;28;20664;-68
2023/05/16 02:54:18;;;;;;;12.00;1.58;;;8.50;99.90;;;;;;5023573;28;21357;-68
2023/05/16 02:56:46;;;;;;;12.93;1.40;;;8.50;99.90;;;;;;5006715;28;20037;-69
2023/05/16 02:59:12;;;;;;;9.88;1.10;;;8.50;99.90;;;;;;5021849;28;20037;-68
2023/05/16 03:01:38;;;;;;;4.53;0.80;;;8.60;99.90;;;;;;5022860;28;20052;-67
2023/05/16 03:04:04;;;;;;;11.90;1.10;;;8.50;99.90;;;;;;5019855;28;20041;-68
2023/05/16 03:06:30;;;;;;;10.70;1.00;;;8.60;99.90;;;;;;5020362;28;20323;-68
2023/05/16 03:08:56;;;;;;;6.03;1.55;;;8.50;99.90;;;;;;5019610;28;20037;-68
2023/05/16 03:11:23;;;;;;;7.47;1.13;;;8.50;99.90;;;;;;5022356;28;20741;-68
2023/05/16 03:13:49;;;;;;;10.10;1.70;;;8.40;99.90;;;;;;5025543;28;20042;-68
2023/05/16 03:16:15;;;;;;;7.60;0.90;;;8.40;99.90;;;;;;5006246;28;20372;-68
2023/05/16 03:18:41;;;;;;;8.20;1.45;;;8.40;99.90;;;;;;5021700;28;20399;-68
2023/05/16 03:21:07;;;;;;;4.78;1.42;;;8.40;99.90;;;;;;5001713;28;20037;-68
2023/05/16 03:23:33;;;;;;;3.38;0.93;;;8.40;99.90;;;;;;5022193;28;20513;-67
2023/05/16 03:25:59;;;;;;;4.80;0.85;;;8.40;99.90;;;;;;5002339;28;20394;-68
2023/05/16 03:28:25;;;;;;;5.85;1.52;;;8.40;99.90;;;;;;5019521;28;20041;-67
2023/05/16 03:30:51;;;;;;;7.72;1.10;;;8.40;99.90;;;;;;5014832;28;20140;-68
2023/05/16 03:33:17;;;;;;;7.97;1.00;;;8.30;99.90;;;;;;5022521;28;20339;-68
2023/05/16 03:35:43;;;;;;;;;;;8.30;99.90;;;;;;5005433;28;20037;-67
2023/05/16 03:38:09;;;;;;;7.88;0.90;;;8.30;99.90;;;;;;5020728;28;19917;-68
2023/05/16 03:40:35;;;;;;;8.93;0.87;;;8.30;99.90;;;;;;5021068;28;20045;-68
2023/05/16 03:43:00;;;;;;;5.73;1.20;;;8.30;99.90;;;;;;5022812;28;20317;-68
2023/05/16 03:45:26;;;;;;;8.17;1.23;;;8.30;99.90;;;;;;5017524;28;20086;-67
2023/05/16 03:47:54;;;;;;;8.00;1.60;;;8.30;99.90;;;;;;5020710;28;20094;-68
2023/05/16 03:50:20;;;;;;;5.28;1.20;;;8.30;99.90;;;;;;5019768;28;20042;-68
2023/05/16 03:52:46;;;;;;;6.27;1.07;;;8.20;99.90;;;;;;5021233;28;20115;-68
2023/05/16 03:55:13;;;;;;;6.23;1.13;;;8.20;99.90;;;;;;5022703;28;20380;-68
2023/05/16 03:57:38;;;;;;;7.03;1.67;;;8.30;99.90;;;;;;5014139;28;20041;-67
2023/05/16 04:00:08;;;;;;;6.83;1.63;;;8.30;99.90;;;;;;5026978;28;20079;-68
2023/05/16 04:02:33;;;;;;;9.25;1.63;;;8.20;99.90;;;;;;5009879;28;20037;-68
2023/05/16 04:04:59;;;;;;;5.20;1.37;;;8.20;99.90;;;;;;5027650;28;20041;-68
2023/05/16 04:07:24;;;;;;;8.07;0.97;;;8.20;99.90;;;;;;5023951;28;20049;-68
2023/05/16 04:09:51;;;;;;;6.63;1.30;;;8.20;99.90;;;;;;5026328;28;20573;-68
2023/05/16 04:12:16;;;;;;;6.72;1.20;;;8.20;99.90;;;;;;5018647;28;20053;-68
2023/05/16 04:14:42;;;;;;;7.57;1.60;;;8.20;99.90;;;;;;5026888;28;20045;-67
2023/05/16 04:17:08;;;;;;;5.75;1.17;;;8.20;99.90;;;;;;5022167;28;20450;-67
2023/05/16 04:19:34;;;;;;;11.60;1.10;;;8.20;99.90;;;;;;5025247;28;20045;-67
2023/05/16 04:21:59;;;;;;;10.73;1.70;;;8.20;99.90;;;;;;5022771;28;20294;-67
2023/05/16 04:24:27;;;;;;;5.60;1.37;;;8.20;99.90;;;;;;5026631;28;20055;-68
2023/05/16 04:26:54;;;;;;;6.05;1.27;;;8.20;99.90;;;;;;5018380;28;20037;-67
2023/05/16 04:29:20;;;;;;;5.00;1.13;;;8.20;99.90;;;;;;5022403;28;20124;-68
2023/05/16 04:31:46;;;;;;;5.90;1.08;;;8.20;99.90;;;;;;5021212;28;20535;-67
2023/05/16 04:34:12;;;;;;;7.18;2.10;;;8.20;99.90;;;;;;5026120;28;20065;-68
2023/05/16 04:36:38;;;;;;;7.77;1.53;;;8.20;99.90;;;;;;5027297;28;20114;-68
2023/05/16 04:39:04;;;;;;;5.03;0.93;;;8.20;99.90;;;;;;5009708;28;20283;-68
2023/05/16 04:41:29;;;;;;;5.80;1.00;;;8.30;99.90;;;;;;5026379;28;20128;-68
2023/05/16 04:43:55;;;;;;;5.87;1.57;;;8.30;99.90;;;;;;5027308;28;20041;-68
2023/05/16 04:46:21;;;;;;;8.20;1.67;;;8.30;99.90;;;;;;5023685;28;20407;-67
2023/05/16 04:48:46;;;;;;;4.33;1.03;;;8.30;99.90;;;;;;5000974;28;20041;-68
2023/05/16 04:51:12;;;;;;;14.93;1.23;;;8.40;99.90;;;;;;5025872;28;20307;-68
2023/05/16 04:53:40;;;;;;;3.07;0.87;;;8.40;99.90;;;;;;5023022;28;20035;-68
2023/05/16 04:56:08;;;;;;;4.60;0.85;;;8.40;99.90;;;;;;5038961;28;20045;-68
2023/05/16 04:58:34;;;;;;;5.07;0.93;;;8.50;99.90;;;;;;5005285;28;20087;-68
2023/05/16 05:00:59;;;;;;;7.57;0.90;;;8.50;99.90;;;;;;5006453;28;20041;-67
2023/05/16 05:03:25;;;;;;;3.47;0.87;;;8.60;99.90;;;;;;5023334;28;20048;-68
2023/05/16 05:05:50;;;;;;;8.30;1.33;;;8.60;99.90;;;;;;5016202;28;20045;-68
2023/05/16 05:08:17;;;;;;;7.30;1.33;;;8.60;99.90;;;;;;5023685;28;20081;-67
2023/05/16 05:10:43;;;;;;;7.03;1.10;;;8.70;99.90;;;;;;5025190;28;20490;-67
2023/05/16 05:13:10;;;;;;;8.97;0.97;;;8.70;99.90;;;;;;5022544;28;20049;-67
2023/05/16 05:15:35;;;;;;;6.43;0.80;;;8.80;99.90;;;;;;5026219;28;20065;-68
2023/05/16 05:18:01;;;;;;;7.13;0.83;;;8.80;99.90;;;;;;5025691;28;20517;-68
2023/05/16 05:20:27;;;;;;;4.73;1.17;;;8.90;99.90;;;;;;5023258;28;20038;-67
2023/05/16 05:22:53;;;;;;;8.15;1.08;;;8.90;99.90;;;;;;5020624;28;20052;-70
2023/05/16 05:25:18;;;;;;;5.00;1.47;;;9.00;99.90;;;;;;5021106;28;20128;-70
2023/05/16 05:27:44;;;;;;;4.17;0.93;;;9.00;99.90;;;;;;5024729;28;20156;-69
2023/05/16 05:30:10;;;;;;;4.23;1.03;;;9.20;99.90;;;;;;5022888;28;20377;-70
2023/05/16 05:32:36;;;;;;;6.13;1.05;;;9.20;99.90;;;;;;5014927;28;20405;-75
2023/05/16 05:35:02;;;;;;;4.95;1.15;;;9.20;99.90;;;;;;5004407;28;20045;-69
2023/05/16 05:37:28;;;;;;;;;;;9.20;99.90;;;;;;5020699;28;20088;-69
2023/05/16 05:39:54;;;;;;;7.85;1.83;;;9.30;99.90;;;;;;5011996;28;19988;-69
2023/05/16 05:42:23;;;;;;;8.95;2.60;;;9.40;99.90;;;;;;5018972;28;20276;-69
2023/05/16 05:44:48;;;;;;;14.70;4.40;;;9.40;99.90;;;;;;5022208;28;20133;-70
2023/05/16 05:47:14;;;;;;;22.37;10.60;;;9.50;99.90;;;;;;5018580;28;20467;-70
2023/05/16 05:49:40;;;;;;;9.50;4.53;;;9.50;99.90;;;;;;5022449;28;20037;-71
2023/05/16 05:52:06;;;;;;;7.77;2.07;;;9.60;99.90;;;;;;5004560;28;20421;-71
2023/05/16 05:54:32;;;;;;;10.90;2.42;;;9.70;99.90;;;;;;5005674;28;20040;-77
2023/05/16 05:56:58;;;;;;;5.30;1.02;;;9.80;99.90;;;;;;5018364;28;20099;-69
2023/05/16 05:59:24;;;;;;;6.10;1.00;;;9.90;99.90;;;;;;5017377;28;20033;-70
2023/05/16 06:01:51;;;;;;;5.18;0.70;;;9.90;99.90;;;;;;5026587;28;20072;-70
2023/05/16 06:04:18;;;;;;;5.75;2.83;;;10.00;99.90;;;;;;5025367;28;20064;-72
2023/05/16 06:06:44;;;;;;;10.18;1.02;;;10.00;99.90;;;;;;5016871;28;20092;-70
2023/05/16 06:09:10;;;;;;;6.07;1.00;;;10.00;99.90;;;;;;5025735;28;20140;-73
2023/05/16 06:11:35;;;;;;;6.25;1.25;;;10.00;99.90;;;;;;5018732;28;20042;-71
2023/05/16 06:14:01;;;;;;;5.40;1.20;;;10.00;99.90;;;;;;5024007;28;20038;-72
2023/05/16 06:16:27;;;;;;;11.95;4.45;;;10.10;99.90;;;;;;5019197;28;20037;-72
2023/05/16 06:18:52;;;;;;;3.53;0.53;;;10.10;99.90;;;;;;5007833;28;20407;-71
2023/05/16 06:21:18;;;;;;;2.60;0.67;;;10.10;99.90;;;;;;5021124;28;20561;-76
2023/05/16 06:23:44;;;;;;;5.83;0.93;;;10.20;99.90;;;;;;5020383;28;20045;-76
2023/05/16 06:26:09;;;;;;;2.27;0.53;;;10.20;99.90;;;;;;5020814;28;20585;-74
2023/05/16 06:28:35;;;;;;;5.37;0.83;;;10.30;99.90;;;;;;5007079;28;20505;-71
2023/05/16 06:31:01;;;;;;;2.97;0.33;;;10.30;99.90;;;;;;5024348;28;20199;-75
2023/05/16 06:33:26;;;;;;;26.07;7.83;;;10.40;99.90;;;;;;5003460;28;20081;-70
2023/05/16 06:35:52;;;;;;;5.83;1.27;;;10.40;99.90;;;;;;5036763;22;20125;-68
2023/05/16 06:38:19;;;;;;;14.25;2.17;;;10.50;99.90;;;;;;5024632;28;20554;-73
2023/05/16 06:40:45;;;;;;;4.05;0.82;;;10.60;99.90;;;;;;5029956;28;20048;-77
2023/05/16 06:43:10;;;;;;;30.17;8.53;;;10.70;99.90;;;;;;5025949;28;20354;-71
2023/05/16 06:45:36;;;;;;;8.77;2.30;;;10.80;99.90;;;;;;5044097;28;20286;-68
2023/05/16 06:48:03;;;;;;;7.28;2.15;;;10.90;99.90;;;;;;5033475;28;20041;-68
2023/05/16 06:50:29;;;;;;;;;;;10.90;99.90;;;;;;5040447;28;20048;-68
2023/05/16 06:52:54;;;;;;;7.60;0.75;;;10.90;99.90;;;;;;5041655;28;19916;-68
2023/05/16 06:55:20;;;;;;;3.90;0.60;;;10.90;99.90;;;;;;5038131;28;20080;-68
2023/05/16 06:57:46;;;;;;;19.27;5.47;;;10.90;99.90;;;;;;5038336;28;20041;-68
2023/05/16 07:00:12;;;;;;;;;;;10.90;99.90;;;;;;5041275;28;20186;-68
2023/05/16 07:02:38;;;;;;;6.72;1.15;;;11.00;99.90;;;;;;5044750;28;19916;-68
2023/05/16 07:05:05;;;;;;;23.77;6.07;;;11.00;99.90;;;;;;5039248;28;20116;-68
2023/05/16 07:07:30;;;;;;;7.90;1.83;;;11.10;99.90;;;;;;5032702;28;20463;-68
2023/05/16 07:09:56;;;;;;;9.50;3.47;;;11.10;99.90;;;;;;5036302;28;20136;-69
2023/05/16 07:12:22;;;;;;;7.60;2.43;;;11.30;99.90;;;;;;5040232;28;20094;-68
2023/05/16 07:14:47;;;;;;;7.57;1.40;;;11.20;99.90;;;;;;5041719;28;20040;-68
2023/05/16 07:17:13;;;;;;;4.60;0.87;;;11.10;99.90;;;;;;5035181;28;20209;-68
2023/05/16 07:19:38;;;;;;;6.37;0.77;;;11.00;99.90;;;;;;5050913;28;20036;-68
2023/05/16 07:22:04;;;;;;;5.27;0.80;;;10.90;99.90;;;;;;5038998;28;20052;-68
2023/05/16 07:24:30;;;;;;;22.13;10.60;;;10.80;99.90;;;;;;5036232;28;20304;-70
2023/05/16 07:26:55;;;;;;;18.17;8.70;;;10.70;99.90;;;;;;5044855;28;20161;-70
2023/05/16 07:29:21;;;;;;;7.20;2.47;;;10.70;99.90;;;;;;5047051;28;20120;-68
2023/05/16 07:31:47;;;;;;;6.23;1.00;;;10.70;99.90;;;;;;5045321;28;20091;-67
2023/05/16 07:34:12;;;;;;;4.97;1.07;;;10.80;99.90;;;;;;5046851;28;20044;-67
2023/05/16 07:36:38;;;;;;;10.50;3.20;;;10.90;99.90;;;;;;5049618;28;20294;-67
2023/05/16 07:39:04;;;;;;;9.47;1.17;;;11.00;99.90;;;;;;5043047;28;20111;-68
2023/05/16 07:41:30;;;;;;;4.25;1.40;;;11.10;99.90;;;;;;5046175;28;20559;-68
2023/05/16 07:43:55;;;;;;;14.43;1.13;;;11.20;99.90;;;;;;5045908;28;20236;-67
2023/05/16 07:46:21;;;;;;;6.00;1.40;;;11.20;99.90;;;;;;5054021;28;20067;-68
2023/05/16 07:48:47;;;;;;;6.22;1.45;;;11.20;99.90;;;;;;5045358;28;20093;-69
2023/05/16 07:51:12;;;;;;;5.10;1.00;;;11.10;99.90;;;;;;5040918;28;20049;-68
2023/05/16 07:53:38;;;;;;;6.95;0.80;;;11.00;99.90;;;;;;5037976;28;20080;-67
2023/05/16 07:56:05;;;;;;;9.33;1.50;;;11.00;99.90;;;;;;5045526;28;20125;-67
2023/05/16 07:58:31;;;;;;;7.63;0.90;;;11.00;99.90;;;;;;5050849;28;20540;-67
2023/05/16 08:00:57;;;;;;;6.55;0.90;;;11.10;99.90;;;;;;5036731;28;20077;-68
2023/05/16 08:03:23;;;;;;;3.45;0.93;;;11.20;99.90;;;;;;5046787;28;20049;-67
2023/05/16 08:05:48;;;;;;;6.27;1.30;;;11.30;99.90;;;;;;5048865;28;20036;-67
2023/05/16 08:08:14;;;;;;;4.77;1.17;;;11.40;99.90;;;;;;5047021;28;20049;-67
2023/05/16 08:10:40;;;;;;;12.90;1.33;;;11.50;99.90;;;;;;5048625;28;20490;-68
2023/05/16 08:13:05;;;;;;;5.80;0.80;;;11.50;99.90;;;;;;5053328;28;20069;-68
2023/05/16 08:15:31;;;;;;;7.83;1.27;;;11.40;99.90;;;;;;5059485;28;20086;-68
2023/05/16 08:17:57;;;;;;;8.70;1.03;;;11.30;99.90;;;;;;5048621;28;20043;-67
2023/05/16 08:20:23;;;;;;;;;;;11.20;99.90;;;;;;5043500;28;20063;-68
2023/05/16 08:22:50;;;;;;;4.70;1.00;;;11.20;99.90;;;;;;5047488;28;20331;-68
2023/05/16 08:25:15;;;;;;;2.78;0.68;;;11.30;99.90;;;;;;5052116;28;20131;-68
2023/05/16 08:27:41;;;;;;;6.80;1.10;;;11.40;99.90;;;;;;5050002;28;20116;-68
2023/05/16 08:30:08;;;;;;;8.60;1.20;;;11.50;99.90;;;;;;5048801;28;20044;-68
2023/05/16 08:32:34;;;;;;;7.65;1.10;;;11.60;99.90;;;;;;5052842;28;20049;-68
2023/05/16 08:35:00;;;;;;;5.18;0.98;;;11.80;99.90;;;;;;5049430;28;20438;-69
2023/05/16 08:37:25;;;;;;;2.43;0.67;;;11.90;99.90;;;;;;5030702;28;20036;-68
2023/05/16 08:39:51;;;;;;;4.70;0.73;;;12.10;99.90;;;;;;5047979;28;20055;-67
2023/05/16 08:42:16;;;;;;;6.60;1.07;;;12.20;99.90;;;;;;5044136;28;20164;-67
2023/05/16 08:44:42;;;;;;;8.33;0.70;;;12.30;99.90;;;;;;5045610;28;20122;-67
2023/05/16 08:47:16;;;;;;;5.23;0.70;;;12.40;99.90;;;;;;5044865;28;20143;-67
2023/05/16 08:49:43;;;;;;;10.45;2.80;;;12.50;99.90;;;;;;5039761;28;20464;-68
2023/05/16 08:52:09;;;;;;;;;;;12.50;99.90;;;;;;5045427;28;20545;-67
2023/05/16 08:54:36;;;;;;;14.50;3.38;;;12.40;99.90;;;;;;5057851;28;19920;-68
2023/05/16 08:57:02;;;;;;;11.52;3.97;;;12.40;99.90;;;;;;5044469;28;20037;-68
2023/05/16 08:59:28;;;;;;;3.95;1.20;;;12.30;99.90;;;;;;5043580;28;20207;-67
2023/05/16 09:01:54;;;;;;;5.95;1.20;;;12.30;99.90;;;;;;5026139;28;20041;-67
2023/05/16 09:04:21;;;;;;;5.88;0.90;;;12.40;99.90;;;;;;5043921;28;20106;-68
2023/05/16 09:06:47;;;;;;;8.85;1.95;;;12.50;99.90;;;;;;5040607;28;20082;-68
2023/05/16 09:09:13;;;;;;;5.85;1.50;;;12.70;99.90;;;;;;5040880;28;20091;-67
2023/05/16 09:11:38;;;;;;;4.38;1.00;;;12.90;99.90;;;;;;5043378;28;20474;-68
2023/05/16 09:14:04;;;;;;;7.40;1.13;;;13.10;99.90;;;;;;5044585;28;20235;-67
2023/05/16 09:16:30;;;;;;;9.57;0.98;;;13.30;99.90;;;;;;5045672;28;20120;-66
2023/05/16 09:19:00;;;;;;;4.57;0.98;;;13.40;99.90;;;;;;5040046;28;20056;-68
2023/05/16 09:21:31;;;;;;;5.53;0.77;;;13.30;99.90;;;;;;5039700;28;20044;-67
2023/05/16 09:24:03;;;;;;;9.82;1.33;;;13.40;99.90;;;;;;5038278;28;20125;-67
2023/05/16 09:26:30;;;;;;;9.23;1.15;;;13.50;99.90;;;;;;5037884;28;20051;-68
2023/05/16 09:28:56;;;;;;;6.18;1.10;;;13.50;99.90;;;;;;5043255;28;20044;-68
2023/05/16 09:31:25;;;;;;;16.38;4.50;;;13.50;99.90;;;;;;5040998;28;20314;-67
2023/05/16 09:34:00;;;;;;;2.78;0.68;;;13.40;99.90;;;;;;5040001;28;20048;-67
2023/05/16 09:36:26;;;;;;;6.13;1.10;;;13.30;99.90;;;;;;5033598;28;20525;-67
2023/05/16 09:38:52;;;;;;;5.18;0.80;;;13.40;99.90;;;;;;5047769;28;20037;-67
2023/05/16 09:41:20;;;;;;;;;;;13.40;99.90;;;;;;5040954;28;20044;-68
2023/05/16 09:43:46;;;;;;;;;;;13.50;99.90;;;;;;5049388;28;20294;-68
2023/05/16 09:46:13;;;;;;;5.03;0.70;;;13.50;99.90;;;;;;5041876;28;19917;-67
2023/05/16 09:48:50;;;;;;;4.13;0.90;;;13.60;99.90;;;;;;5050085;28;20112;-68
2023/05/16 09:51:21;;;;;;;4.18;1.08;;;13.70;99.90;;;;;;5035199;28;20142;-67
2023/05/16 09:53:47;;;;;;;6.18;0.70;;;13.80;99.90;;;;;;5046041;28;20080;-68
2023/05/16 09:56:14;;;;;;;6.90;1.90;;;13.60;99.90;;;;;;5040094;28;20494;-67
2023/05/16 09:58:42;;;;;;;8.52;2.13;;;13.60;99.90;;;;;;5043660;28;20124;-67
2023/05/16 10:01:09;;;;;;;7.93;1.00;;;13.60;99.90;;;;;;5044445;28;20056;-68
2023/05/16 10:03:40;;;;;;;7.97;1.55;;;13.70;99.90;;;;;;5057370;28;20056;-68
2023/05/16 10:06:07;;;;;;;6.63;1.42;;;13.80;99.90;;;;;;5041330;28;20129;-67
2023/05/16 10:08:35;;;;;;;3.35;0.65;;;13.80;99.90;;;;;;5039780;28;20110;-67
2023/05/16 10:11:03;;;;;;;3.58;0.88;;;13.80;99.90;;;;;;5038349;28;20084;-67
2023/05/16 10:13:30;;;;;;;4.95;0.65;;;13.70;99.90;;;;;;5031554;28;20517;-67
2023/05/16 10:15:58;;;;;;;3.80;0.52;;;13.70;99.90;;;;;;5040635;28;20486;-67
2023/05/16 10:18:34;;;;;;;3.63;0.80;;;13.70;99.90;;;;;;5037369;28;20089;-68
2023/05/16 10:21:05;;;;;;;9.93;2.25;;;13.80;99.90;;;;;;5043368;28;20146;-67
2023/05/16 10:23:32;;;;;;;4.63;1.02;;;13.90;99.90;;;;;;5043429;28;20083;-67
2023/05/16 10:25:59;;;;;;;3.88;0.90;;;14.00;99.90;;;;;;5043880;28;20039;-67
2023/05/16 10:28:26;;;;;;;5.90;1.13;;;13.80;99.90;;;;;;5038280;28;20045;-67
2023/05/16 10:30:54;;;;;;;5.03;1.77;;;13.60;99.90;;;;;;5037927;28;20163;-67
2023/05/16 10:33:20;;;;;;;7.75;0.95;;;13.60;99.90;;;;;;5042012;28;20751;-67
2023/05/16 10:35:46;;;;;;;13.40;3.92;;;13.60;99.90;;;;;;5046054;28;20443;-67
2023/05/16 10:38:15;;;;;;;4.78;0.80;;;13.50;99.90;;;;;;5040224;28;20061;-67
2023/05/16 10:40:41;;;;;;;3.03;0.82;;;13.50;99.90;;;;;;5025017;28;20439;-67
2023/05/16 10:43:08;;;;;;;4.43;1.00;;;13.50;99.90;;;;;;5037591;28;20090;-67
2023/05/16 10:45:43;;;;;;;6.03;0.85;;;13.60;99.90;;;;;;5025805;28;20051;-67
2023/05/16 10:48:11;;;;;;;10.98;1.08;;;13.60;99.90;;;;;;5035863;28;20452;-67
2023/05/16 10:50:40;;;;;;;4.35;1.40;;;13.70;99.90;;;;;;5039919;28;20051;-68
2023/05/16 10:53:27;;;;;;;6.45;1.83;;;13.70;99.90;;;;;;5043291;28;20041;-71
2023/05/16 10:55:56;;;;;;;;;;;13.70;99.90;;;;;;5042794;28;20661;-71
2023/05/16 10:58:41;;;;;;;3.42;0.65;;;13.70;99.90;;;;;;5025405;28;20257;-71
2023/05/16 11:01:28;;;;;;;4.38;1.67;;;13.70;99.90;;;;;;5041094;28;20045;-72
2023/05/16 11:03:57;;;;;;;6.97;1.50;;;13.70;99.90;;;;;;5037618;28;20052;-71
2023/05/16 11:06:24;;;;;;;7.35;0.90;;;13.70;99.90;;;;;;5040576;28;20048;-72
2023/05/16 11:09:10;;;;;;;4.82;0.63;;;13.60;99.90;;;;;;5039408;28;20045;-71
2023/05/16 11:11:53;;;;;;;5.25;0.60;;;13.60;99.90;;;;;;5041455;28;20318;-71
2023/05/16 11:14:24;;;;;;;3.78;1.02;;;13.50;99.90;;;;;;5039863;28;20047;-71
2023/05/16 11:16:58;;;;;;;6.15;1.00;;;13.30;99.90;;;;;;5032494;28;20345;-71
2023/05/16 11:19:30;;;;;;;4.65;1.02;;;13.10;99.90;;;;;;5035911;28;20265;-71
2023/05/16 11:22:15;;;;;;;2.67;0.75;;;13.00;99.90;;;;;;5034262;28;20041;-72
2023/05/16 11:24:51;;;;;;;4.68;0.77;;;13.00;99.90;;;;;;5039935;28;20044;-71
2023/05/16 11:27:22;;;;;;;6.93;0.80;;;13.00;99.90;;;;;;5047378;28;20094;-72
2023/05/16 11:29:48;;;;;;;10.73;0.88;;;13.20;99.90;;;;;;5038854;28;20033;-71
2023/05/16 11:32:17;;;;;;;4.03;0.80;;;13.40;99.90;;;;;;5043440;28;20061;-71
2023/05/16 11:34:44;;;;;;;4.72;1.00;;;13.60;99.90;;;;;;5043547;28;20409;-71
2023/05/16 11:37:10;;;;;;;5.05;0.88;;;13.80;99.90;;;;;;5038845;28;20068;-72
2023/05/16 11:39:36;;;;;;;4.68;1.00;;;13.90;99.90;;;;;;5035320;28;20649;-71
2023/05/16 11:42:02;;;;;;;3.87;0.60;;;14.00;99.90;;;;;;5020641;28;20145;-71
2023/05/16 11:44:28;;;;;;;4.72;1.77;;;14.20;99.90;;;;;;5034002;28;20445;-71
2023/05/16 11:46:53;;;;;;;8.93;1.30;;;14.40;99.90;;;;;;5039746;28;20123;-71
2023/05/16 11:49:19;;;;;;;8.18;1.40;;;14.50;99.90;;;;;;5041777;28;20462;-71
2023/05/16 11:51:45;;;;;;;4.45;1.30;;;14.70;99.90;;;;;;5044818;28;20045;-71
2023/05/16 11:54:14;;;;;;;6.97;1.15;;;14.70;99.90;;;;;;5041549;28;20045;-71
2023/05/16 11:56:40;;;;;;;2.78;1.00;;;14.70;99.90;;;;;;5031267;28;20041;-71
2023/05/16 11:59:06;;;;;;;5.00;0.95;;;14.60;99.90;;;;;;5031244;28;20114;-71
2023/05/16 12:01:37;;;;;;;8.45;2.33;;;14.70;99.90;;;;;;5036283;28;20048;-70
2023/05/16 12:04:13;;;;;;;9.23;1.38;;;14.60;99.90;;;;;;5035421;28;20077;-71
2023/05/16 12:06:42;;;;;;;3.83;1.63;;;14.50;99.90;;;;;;5026540;28;20045;-71
2023/05/16 12:09:12;;;;;;;5.38;1.35;;;14.50;99.90;;;;;;5041187;28;20037;-71
2023/05/16 12:11:42;;;;;;;7.05;1.60;;;14.60;99.90;;;;;;5040869;28;20117;-71
2023/05/16 12:14:10;;;;;;;3.28;1.50;;;14.70;99.90;;;;;;5033792;28;20044;-71
2023/05/16 12:16:37;;;;;;;7.13;1.70;;;14.70;99.90;;;;;;5035698;28;20497;-71
2023/05/16 12:19:05;;;;;;;6.85;1.75;;;14.80;99.90;;;;;;5037795;28;20037;-71
2023/05/16 12:21:31;;;;;;;4.65;1.45;;;14.70;99.90;;;;;;5043301;28;20039;-71
2023/05/16 12:23:58;;;;;;;9.25;1.83;;;14.70;99.90;;;;;;5045289;28;20069;-72
2023/05/16 12:26:32;;;;;;;7.43;1.85;;;14.80;99.90;;;;;;5049342;28;20033;-72
2023/05/16 12:29:01;;;;;;;4.88;1.77;;;15.00;99.90;;;;;;5040823;28;20097;-72
2023/05/16 12:31:29;;;;;;;4.10;1.23;;;15.10;99.90;;;;;;5046936;28;20049;-72
2023/05/16 12:33:55;;;;;;;7.68;1.50;;;15.10;99.90;;;;;;5042908;28;20326;-72
2023/05/16 12:36:23;;;;;;;14.27;3.33;;;15.00;99.90;;;;;;5055833;22;20025;-69
2023/05/16 12:38:50;;;;;;;5.78;1.67;;;14.90;99.90;;;;;;5021930;28;20454;-69
2023/05/16 12:41:22;;;;;;;4.80;1.55;;;14.90;99.90;;;;;;5023825;28;20045;-69
2023/05/16 12:43:48;;;;;;;4.63;1.70;;;14.90;99.90;;;;;;5021238;28;20133;-69
2023/05/16 12:46:15;;;;;;;4.65;1.77;;;14.90;99.90;;;;;;5017504;28;20380;-69
2023/05/16 12:48:42;;;;;;;4.07;1.58;;;14.90;99.90;;;;;;5015833;28;20041;-69
2023/05/16 12:51:17;;;;;;;7.18;1.90;;;15.00;99.90;;;;;;5018169;28;20553;-68
2023/05/16 12:53:48;;;;;;;4.35;1.95;;;15.00;99.20;;;;;;5015548;28;20041;-69
2023/05/16 12:56:14;;;;;;;4.10;1.70;;;15.10;99.30;;;;;;5021170;28;20407;-68